KTEB/TEB METAR and TAF weather

Enter ICAO airport designator
Station Type Date Time Source
KTEB METAR 2022/07/01 00:51 UTC NOAA

KTEB 010051Z 19006KT 10SM CLR 26/16 A3010 RMK AO2 SLP194 T02560156


Station Type Date Time Source
KTEB Decoded METAR 2022/07/01 00:51 UTC NOAA

TETERBORO AIRPORT, NJ, United States (KTEB) 40-52N 74-03W 7M
Jun 30, 2022 - 08:51 PM EDT / 2022.07.01 0051 UTC
Wind: from the S (190 degrees) at 7 MPH (6 KT):0
Visibility: 10 mile(s):0
Sky conditions: clear
Temperature: 78.1 F (25.6 C)
Dew Point: 60.1 F (15.6 C)
Relative Humidity: 53%
Pressure (altimeter): 30.1 in. Hg (1019 hPa)
ob: KTEB 010051Z 19006KT 10SM CLR 26/16 A3010 RMK AO2 SLP194 T02560156
cycle: 1

Station Type Date Time Source
KTEB TAF 2022/06/30 21:45 UTC NOAA

TAF
AMD KTEB 302042Z 3021/0124 30008KT P6SM SCT070
FM302200 27007KT P6SM SCT070
FM010000 20005KT P6SM FEW070
FM011300 22010G17KT P6SM SCT050 SCT250
FM012100 22015G25KT P6SM BKN250

Example: see airport list